• Join FlightAware (Why Join?)
  • Login
  • US Flag 
04:36PM EST


 

Airport Tracker/Info


-or-


 

Live Flight TrackerFlight Track Log ✈ CES5528 ✈ 20-Dec-2013 ✈ ZHLY / LYA - ZSSS / SHA

Flight Track Log - Related Links

Times and Time Zones

All times are in EST time to prevent confusion due to time zone crossing. See the CES5528 flight status page for this flight to view local times or setup timezone preferences in your user account.

Time Position Orientation Groundspeed Altitude Reporting Facility
EST Latitude Longitude Course Direction KTS MPH feet Rate Location/Type
10:18AM 33.7285 115.1953 113° Southeast  Level Estimated
10:19AM 33.6704 115.3493 114° Southeast  Level Estimated
10:20AM 33.6121 115.5031 114° Southeast  Level Estimated
10:21AM 33.5536 115.6566 115° Southeast  Level Estimated
10:22AM 33.4950 115.8099 115° Southeast  Level Estimated
10:23AM 33.4361 115.9631 115° Southeast  Level Estimated
10:24AM 33.3770 116.1160 115° Southeast  Level Estimated
10:25AM 33.3178 116.2687 115° Southeast  Level Estimated
10:26AM 33.2584 116.4212 115° Southeast  Level Estimated
10:27AM 33.1988 116.5735 115° Southeast  Level Estimated
10:28AM 33.1390 116.7256 115° Southeast  Level Estimated
10:29AM 33.0790 116.8775 115° Southeast  Level Estimated
10:30AM 33.0188 117.0292 115° Southeast  Level Estimated
10:31AM 32.9585 117.1806 115° Southeast  Level Estimated
10:32AM 32.8979 117.3319 115° Southeast  Level Estimated
10:33AM 32.8372 117.4830 116° Southeast  Level Estimated
10:34AM 32.7763 117.6338 116° Southeast  Level Estimated
10:35AM 32.7152 117.7845 116° Southeast  Level Estimated
10:36AM 32.6540 117.9349 116° Southeast  Level Estimated
10:37AM 32.5925 118.0851 116° Southeast  Level Estimated
10:38AM 32.5309 118.2352 116° Southeast  Level Estimated
10:39AM 32.4691 118.3850 116° Southeast  Level Estimated
10:40AM 32.4072 118.5346 116° Southeast  Level Estimated
10:41AM 32.3450 118.6840 116° Southeast  Level Estimated
10:42AM 32.2827 118.8332 116° Southeast  Level Estimated
10:43AM 32.2202 118.9822 116° Southeast  Level Estimated
10:44AM 32.1575 119.1310 116° Southeast  Level Estimated
10:45AM 32.0947 119.2796 116° Southeast  Level Estimated
10:46AM 32.0317 119.4279 117° Southeast  Level Estimated
10:47AM 31.9685 119.5761 117° Southeast  Level Estimated
10:48AM 31.9051 119.7241 117° Southeast  Level Estimated
10:49AM 31.8416 119.8719 117° Southeast  Level Estimated
10:50AM 31.7778 120.0194 117° Southeast  Level Estimated
10:51AM 31.7140 120.1668 117° Southeast  Level Estimated
10:52AM 31.6499 120.3140 117° Southeast  Level Estimated
10:53AM 31.5857 120.4609 117° Southeast  Level Estimated
10:54AM 31.5213 120.6077 117° Southeast  Level Estimated
10:55AM 31.4568 120.7542 117° Southeast  Level Estimated
10:56AM 31.3921 120.9006 117° Southeast  Level Estimated
10:57AM 31.3272 121.0467 117° Southeast  Level Estimated
10:58AM 31.2621 121.1927 118° Southeast  Level Estimated
10:59AM 31.1979 121.3363 118° Southeast  Level Estimated
11:00AM 31.1979 121.3363 350° North  Level Estimated
11:01AM 31.1979 121.3363 350° North  Level Estimated
11:02AM 31.1979 121.3363 350° North  Level Estimated
11:03AM 31.1979 121.3363 350° North  Level Estimated
11:04AM 31.1979 121.3363 350° North  Level Estimated
11:05AM 31.1979 121.3363 350° North  Level Estimated
11:06AM 31.1979 121.3363 350° North  Level Estimated
11:07AM 31.1979 121.3363 350° North  Level Estimated
11:08AM 31.1979 121.3363 350° North  Level Estimated
11:09AM 31.1979 121.3363 350° North  Level Estimated
11:10AM 31.1979 121.3363 350° North  Level Estimated
11:11AM 31.1979 121.3363 350° North  Level Estimated
11:12AM 31.1979 121.3363 350° North  Level Estimated
11:13AM 31.1979 121.3363 350° North  Level Estimated
11:14AM 31.1979 121.3363 350° North  Level Estimated
11:15AM 31.1979 121.3363 350° North  Level Estimated
11:16AM 31.1979 121.3363 350° North  Level Estimated
11:17AM 31.1979 121.3363 350° North  Level Estimated
11:18AM 31.1979 121.3363 350° North  Level Estimated
11:19AM 31.1979 121.3363 350° North  Level Estimated
11:20AM 31.1979 121.3363 350° North  Level Estimated
11:21AM 31.1979 121.3363 350° North  Level Estimated
11:22AM 31.1979 121.3363 350° North  Level Estimated
11:23AM 31.1979 121.3363 350° North  Level Estimated
11:24AM 31.1979 121.3363 350° North  Level Estimated
11:25AM 31.1979 121.3363 350° North  Level Estimated
11:26AM 31.1979 121.3363 350° North  Level Estimated